Arnold, Michigan
Current Conditions -  °F | °C
As of 3:16 AM on Monday 26 Jan 2015 (Local Time) from KSAW Reporting Station
Clear Clear  
Wind Chill:   Ceiling: Unl
Heat Index:   Visibility: 10mi
Dew Point:   Wind: 3mph
Humidity: 85%   Direction: 200°SSW
Pressure: 29.93"   Gusts: NA
Location:  46.05°N, 87.49°W
Report Text: KSAW 260816Z AUTO 20003KT 10SM CLR M15/M17 A2993 RMK AO2 T11541174
Loading
Personal Weather Stations






























Interactive Weather Map New forecast layout! Learn more

10-Day Weather Forecast

Advertisements
Track Severe Weather on mobile